Terminal Aerodrome Forecast
Issued by NWS

Home | Current Version | Previous Version | Text Only | Print | Product List | Glossary On
Versions: 1 2 3 4 5 6 7 8 9 10 11 12 13 14 15 16 17 18 19
599
FTUS46 KMTR 221730
TAFSTS
TAF
KSTS 221730Z 2218/2318 19006KT P6SM SCT050
     FM222000 24006KT P6SM VCTS BKN040CB
     FM230400 VRB03KT P6SM VCSH BKN040
     FM231200 22004KT 5SM BR OVC040
      TEMPO 2312/2316 P6SM -SHRA OVC030=

USA.gov is the U.S. government's official web portal to all federal, state and local government web resources and services.